Missouri River (Missouri), Glasgow (06906500)

StateMissouriLatestUnknown (47100 cfs)
RiverMissouri RiverRatingObservedEstimated
Updated2020-09-23 0:30 (22 minutes ago)Flood - The river is flooding. Obstacles can be treacherous or deadly. The river should be avoided at this stage for casual trips and definitely for the inexperienced. Trips should be attempted only with protective gear and equipment.Flood(none)(none)
Discharge47100 cfs (median: 52100 cfs)High - The river is high and potentially dangerous, especially for the young and / or inexperienced. Normal stream obstacles are sometimes difficult to navigate. Extended distances can be attempted, but canoe travel may not be advisable.High(none)(none)
Height12.19 feetGood - Conditions are ideal for a canoe or kayak. Boats typically will drag on fewer than one-quarter of riffles, if at all, and portages are unnecessary or rare. Normal float lengths can be attempted without a problem.Good(none)(none)
TrendSteady (falling over 24 hours)Low - River is low but can still be floated. Some riffles are okay but most come with significant dragging and might need a portage. Float lengths should be reduced to accommodate low flow, dragging, and portages.Low(none)(none)
USGSExternal icon USGS Site (External icon Google Maps)Poor - River is too low to float comfortably. Most or all riffles will drag or must be portaged and some obstacles (such as slick shelf rock) cause undue problems. Avoid the river at this stage for casual paddling trips.Poor(none)(none)

Trending Data

Plot Image

Trips for Missouri River (Missouri), Glasgow (06906500)

DateStartEndDistanceConditionDischargeHeightFishingDetails

A total of 0 rows are displayed.

Condition Descriptions

Fishing Conditions

Fish Species

Notes

Classic Trip List

The classic River Trips application is still available for use. It is updated with the new system using a data retrofit. It is no longer maintained. The original River Trips application is no longer updated (as of 1 Dec 2016) but can be checked for errors or for the condition of the data before it was converted to the new system.

Gauge Data Table

ObservationHeightDischargeMaximum
Discharge
Minimum
Discharge
Mean
Discharge
P05P10P20P25P50
(Median)
P75P80P90P95
2020-09-23 00:30 12.19 47100 195000 (2010) 36400 (2002) 72300 36400 37900 42200 42900 52100 85700 99500 167000 195000
2020-09-22 23:30 12.19 47100 162000 (2010) 36900 (2002) 70800 36900 38600 41100 42200 58200 90000 99700 140000 162000
2020-09-22 22:30 12.20 47200 162000 (2010) 36900 (2002) 70800 36900 38600 41100 42200 58200 90000 99700 140000 162000
2020-09-22 21:30 12.20 47200 162000 (2010) 36900 (2002) 70800 36900 38600 41100 42200 58200 90000 99700 140000 162000
2020-09-22 20:30 12.20 47200 162000 (2010) 36900 (2002) 70800 36900 38600 41100 42200 58200 90000 99700 140000 162000
2020-09-22 19:30 12.21 47300 162000 (2010) 36900 (2002) 70800 36900 38600 41100 42200 58200 90000 99700 140000 162000
2020-09-22 18:30 12.20 47200 162000 (2010) 36900 (2002) 70800 36900 38600 41100 42200 58200 90000 99700 140000 162000
2020-09-22 17:30 12.20 47200 162000 (2010) 36900 (2002) 70800 36900 38600 41100 42200 58200 90000 99700 140000 162000
2020-09-22 16:30 12.15 46900 162000 (2010) 36900 (2002) 70800 36900 38600 41100 42200 58200 90000 99700 140000 162000
2020-09-22 15:30 12.17 47000 162000 (2010) 36900 (2002) 70800 36900 38600 41100 42200 58200 90000 99700 140000 162000
2020-09-22 14:30 12.18 47100 162000 (2010) 36900 (2002) 70800 36900 38600 41100 42200 58200 90000 99700 140000 162000
2020-09-22 13:30 12.20 47200 162000 (2010) 36900 (2002) 70800 36900 38600 41100 42200 58200 90000 99700 140000 162000
2020-09-22 12:30 12.23 47400 162000 (2010) 36900 (2002) 70800 36900 38600 41100 42200 58200 90000 99700 140000 162000
2020-09-22 11:30 12.24 47400 162000 (2010) 36900 (2002) 70800 36900 38600 41100 42200 58200 90000 99700 140000 162000
2020-09-22 10:30 12.24 47400 162000 (2010) 36900 (2002) 70800 36900 38600 41100 42200 58200 90000 99700 140000 162000
2020-09-22 09:30 12.22 47300 162000 (2010) 36900 (2002) 70800 36900 38600 41100 42200 58200 90000 99700 140000 162000
2020-09-22 08:30 12.24 47400 162000 (2010) 36900 (2002) 70800 36900 38600 41100 42200 58200 90000 99700 140000 162000
2020-09-22 07:30 12.25 47500 162000 (2010) 36900 (2002) 70800 36900 38600 41100 42200 58200 90000 99700 140000 162000
2020-09-22 06:30 12.28 47600 162000 (2010) 36900 (2002) 70800 36900 38600 41100 42200 58200 90000 99700 140000 162000
2020-09-22 05:30 12.28 47600 162000 (2010) 36900 (2002) 70800 36900 38600 41100 42200 58200 90000 99700 140000 162000
2020-09-22 04:30 12.29 47700 162000 (2010) 36900 (2002) 70800 36900 38600 41100 42200 58200 90000 99700 140000 162000
2020-09-22 03:30 12.29 47700 162000 (2010) 36900 (2002) 70800 36900 38600 41100 42200 58200 90000 99700 140000 162000
2020-09-22 02:30 12.29 47700 162000 (2010) 36900 (2002) 70800 36900 38600 41100 42200 58200 90000 99700 140000 162000
2020-09-22 01:30 12.29 47700 162000 (2010) 36900 (2002) 70800 36900 38600 41100 42200 58200 90000 99700 140000 162000
2020-09-22 00:30 12.26 47500 162000 (2010) 36900 (2002) 70800 36900 38600 41100 42200 58200 90000 99700 140000 162000
2020-09-21 23:30 12.28 47600 140000 (2010) 38100 (2002) 71400 38100 38200 40700 42500 56500 95800 99500 135000 140000
2020-09-21 22:30 12.28 47600 140000 (2010) 38100 (2002) 71400 38100 38200 40700 42500 56500 95800 99500 135000 140000
2020-09-21 21:30 12.27 47600 140000 (2010) 38100 (2002) 71400 38100 38200 40700 42500 56500 95800 99500 135000 140000
2020-09-21 20:30 12.26 47500 140000 (2010) 38100 (2002) 71400 38100 38200 40700 42500 56500 95800 99500 135000 140000
2020-09-21 19:30 12.24 47400 140000 (2010) 38100 (2002) 71400 38100 38200 40700 42500 56500 95800 99500 135000 140000
2020-09-21 18:30 12.21 47300 140000 (2010) 38100 (2002) 71400 38100 38200 40700 42500 56500 95800 99500 135000 140000
2020-09-21 17:30 12.21 47300 140000 (2010) 38100 (2002) 71400 38100 38200 40700 42500 56500 95800 99500 135000 140000
2020-09-21 16:30 12.22 47300 140000 (2010) 38100 (2002) 71400 38100 38200 40700 42500 56500 95800 99500 135000 140000
2020-09-21 15:30 12.21 47300 140000 (2010) 38100 (2002) 71400 38100 38200 40700 42500 56500 95800 99500 135000 140000
2020-09-21 14:30 12.20 47200 140000 (2010) 38100 (2002) 71400 38100 38200 40700 42500 56500 95800 99500 135000 140000
2020-09-21 13:30 12.20 47200 140000 (2010) 38100 (2002) 71400 38100 38200 40700 42500 56500 95800 99500 135000 140000
2020-09-21 12:30 12.23 47400 140000 (2010) 38100 (2002) 71400 38100 38200 40700 42500 56500 95800 99500 135000 140000
2020-09-21 11:30 12.23 47400 140000 (2010) 38100 (2002) 71400 38100 38200 40700 42500 56500 95800 99500 135000 140000
2020-09-21 10:30 12.22 47300 140000 (2010) 38100 (2002) 71400 38100 38200 40700 42500 56500 95800 99500 135000 140000
2020-09-21 09:30 12.25 47500 140000 (2010) 38100 (2002) 71400 38100 38200 40700 42500 56500 95800 99500 135000 140000
2020-09-21 08:30 12.24 47400 140000 (2010) 38100 (2002) 71400 38100 38200 40700 42500 56500 95800 99500 135000 140000
2020-09-21 07:30 12.23 47400 140000 (2010) 38100 (2002) 71400 38100 38200 40700 42500 56500 95800 99500 135000 140000
2020-09-21 06:30 12.22 47300 140000 (2010) 38100 (2002) 71400 38100 38200 40700 42500 56500 95800 99500 135000 140000
2020-09-21 05:30 12.23 47400 140000 (2010) 38100 (2002) 71400 38100 38200 40700 42500 56500 95800 99500 135000 140000
2020-09-21 04:30 12.21 47300 140000 (2010) 38100 (2002) 71400 38100 38200 40700 42500 56500 95800 99500 135000 140000
2020-09-21 03:30 12.20 47200 140000 (2010) 38100 (2002) 71400 38100 38200 40700 42500 56500 95800 99500 135000 140000
2020-09-21 02:30 12.18 47100 140000 (2010) 38100 (2002) 71400 38100 38200 40700 42500 56500 95800 99500 135000 140000
2020-09-21 01:30 12.17 47000 140000 (2010) 38100 (2002) 71400 38100 38200 40700 42500 56500 95800 99500 135000 140000
2020-09-21 00:30 12.18 47100 140000 (2010) 38100 (2002) 71400 38100 38200 40700 42500 56500 95800 99500 135000 140000
2020-09-20 23:30 12.19 47100 136000 (2010) 38300 (2002) 74000 38300 38300 40900 41200 54500 112000 117000 134000 136000
2020-09-20 22:30 12.19 47100 136000 (2010) 38300 (2002) 74000 38300 38300 40900 41200 54500 112000 117000 134000 136000
2020-09-20 21:30 12.18 47100 136000 (2010) 38300 (2002) 74000 38300 38300 40900 41200 54500 112000 117000 134000 136000
2020-09-20 20:30 12.18 47100 136000 (2010) 38300 (2002) 74000 38300 38300 40900 41200 54500 112000 117000 134000 136000
2020-09-20 19:30 12.18 47100 136000 (2010) 38300 (2002) 74000 38300 38300 40900 41200 54500 112000 117000 134000 136000
2020-09-20 18:30 12.15 46900 136000 (2010) 38300 (2002) 74000 38300 38300 40900 41200 54500 112000 117000 134000 136000
2020-09-20 17:30 12.17 47000 136000 (2010) 38300 (2002) 74000 38300 38300 40900 41200 54500 112000 117000 134000 136000
2020-09-20 16:30 12.17 47000 136000 (2010) 38300 (2002) 74000 38300 38300 40900 41200 54500 112000 117000 134000 136000
2020-09-20 15:30 12.15 46900 136000 (2010) 38300 (2002) 74000 38300 38300 40900 41200 54500 112000 117000 134000 136000
2020-09-20 14:30 12.17 47000 136000 (2010) 38300 (2002) 74000 38300 38300 40900 41200 54500 112000 117000 134000 136000
2020-09-20 13:30 12.19 47100 136000 (2010) 38300 (2002) 74000 38300 38300 40900 41200 54500 112000 117000 134000 136000
2020-09-20 12:30 12.16 47000 136000 (2010) 38300 (2002) 74000 38300 38300 40900 41200 54500 112000 117000 134000 136000
2020-09-20 11:30 12.19 47100 136000 (2010) 38300 (2002) 74000 38300 38300 40900 41200 54500 112000 117000 134000 136000
2020-09-20 10:30 12.20 47200 136000 (2010) 38300 (2002) 74000 38300 38300 40900 41200 54500 112000 117000 134000 136000
2020-09-20 09:30 12.23 47400 136000 (2010) 38300 (2002) 74000 38300 38300 40900 41200 54500 112000 117000 134000 136000
2020-09-20 08:30 12.27 47600 136000 (2010) 38300 (2002) 74000 38300 38300 40900 41200 54500 112000 117000 134000 136000
2020-09-20 07:30 12.26 47500 136000 (2010) 38300 (2002) 74000 38300 38300 40900 41200 54500 112000 117000 134000 136000
2020-09-20 06:30 12.29 47700 136000 (2010) 38300 (2002) 74000 38300 38300 40900 41200 54500 112000 117000 134000 136000
2020-09-20 05:30 12.30 47700 136000 (2010) 38300 (2002) 74000 38300 38300 40900 41200 54500 112000 117000 134000 136000
2020-09-20 04:30 12.31 47800 136000 (2010) 38300 (2002) 74000 38300 38300 40900 41200 54500 112000 117000 134000 136000
2020-09-20 03:30 12.30 47700 136000 (2010) 38300 (2002) 74000 38300 38300 40900 41200 54500 112000 117000 134000 136000
2020-09-20 02:30 12.31 47800 136000 (2010) 38300 (2002) 74000 38300 38300 40900 41200 54500 112000 117000 134000 136000
2020-09-20 01:30 12.30 47700 136000 (2010) 38300 (2002) 74000 38300 38300 40900 41200 54500 112000 117000 134000 136000
2020-09-20 00:30 12.29 47700 136000 (2010) 38300 (2002) 74000 38300 38300 40900 41200 54500 112000 117000 134000 136000
2020-09-19 23:30 12.29 47700 143000 (2008) 37900 (2002) 72700 37900 39600 40600 41800 48800 102000 104000 134000 143000
2020-09-19 22:30 12.31 47800 143000 (2008) 37900 (2002) 72700 37900 39600 40600 41800 48800 102000 104000 134000 143000
2020-09-19 21:30 12.30 47700 143000 (2008) 37900 (2002) 72700 37900 39600 40600 41800 48800 102000 104000 134000 143000
2020-09-19 20:30 12.29 47700 143000 (2008) 37900 (2002) 72700 37900 39600 40600 41800 48800 102000 104000 134000 143000
2020-09-19 19:30 12.30 47700 143000 (2008) 37900 (2002) 72700 37900 39600 40600 41800 48800 102000 104000 134000 143000
2020-09-19 18:30 12.24 47400 143000 (2008) 37900 (2002) 72700 37900 39600 40600 41800 48800 102000 104000 134000 143000
2020-09-19 17:30 12.27 47600 143000 (2008) 37900 (2002) 72700 37900 39600 40600 41800 48800 102000 104000 134000 143000
2020-09-19 16:30 12.26 47500 143000 (2008) 37900 (2002) 72700 37900 39600 40600 41800 48800 102000 104000 134000 143000
2020-09-19 15:30 12.27 47600 143000 (2008) 37900 (2002) 72700 37900 39600 40600 41800 48800 102000 104000 134000 143000
2020-09-19 14:30 12.26 47500 143000 (2008) 37900 (2002) 72700 37900 39600 40600 41800 48800 102000 104000 134000 143000
2020-09-19 13:30 12.29 47700 143000 (2008) 37900 (2002) 72700 37900 39600 40600 41800 48800 102000 104000 134000 143000
2020-09-19 12:30 12.32 47800 143000 (2008) 37900 (2002) 72700 37900 39600 40600 41800 48800 102000 104000 134000 143000
2020-09-19 11:30 12.32 47800 143000 (2008) 37900 (2002) 72700 37900 39600 40600 41800 48800 102000 104000 134000 143000
2020-09-19 10:30 12.32 47800 143000 (2008) 37900 (2002) 72700 37900 39600 40600 41800 48800 102000 104000 134000 143000
2020-09-19 09:30 12.34 48000 143000 (2008) 37900 (2002) 72700 37900 39600 40600 41800 48800 102000 104000 134000 143000
2020-09-19 08:30 12.35 48000 143000 (2008) 37900 (2002) 72700 37900 39600 40600 41800 48800 102000 104000 134000 143000
2020-09-19 07:30 12.34 48000 143000 (2008) 37900 (2002) 72700 37900 39600 40600 41800 48800 102000 104000 134000 143000
2020-09-19 06:30 12.36 48100 143000 (2008) 37900 (2002) 72700 37900 39600 40600 41800 48800 102000 104000 134000 143000
2020-09-19 05:30 12.37 48100 143000 (2008) 37900 (2002) 72700 37900 39600 40600 41800 48800 102000 104000 134000 143000
2020-09-19 04:30 12.37 48100 143000 (2008) 37900 (2002) 72700 37900 39600 40600 41800 48800 102000 104000 134000 143000
2020-09-19 03:30 12.38 48200 143000 (2008) 37900 (2002) 72700 37900 39600 40600 41800 48800 102000 104000 134000 143000
2020-09-19 02:30 12.39 48200 143000 (2008) 37900 (2002) 72700 37900 39600 40600 41800 48800 102000 104000 134000 143000
2020-09-19 01:30 12.36 48100 143000 (2008) 37900 (2002) 72700 37900 39600 40600 41800 48800 102000 104000 134000 143000
2020-09-19 00:30 12.37 48100 143000 (2008) 37900 (2002) 72700 37900 39600 40600 41800 48800 102000 104000 134000 143000
2020-09-18 23:30 12.37 48100 175000 (2008) 37500 (2002) 73300 37500 39500 42100 42100 49300 104000 110000 132000 175000
2020-09-18 22:30 12.38 48200 175000 (2008) 37500 (2002) 73300 37500 39500 42100 42100 49300 104000 110000 132000 175000
2020-09-18 21:30 12.39 48200 175000 (2008) 37500 (2002) 73300 37500 39500 42100 42100 49300 104000 110000 132000 175000
2020-09-18 20:30 12.39 48200 175000 (2008) 37500 (2002) 73300 37500 39500 42100 42100 49300 104000 110000 132000 175000
2020-09-18 19:30 12.40 48300 175000 (2008) 37500 (2002) 73300 37500 39500 42100 42100 49300 104000 110000 132000 175000
2020-09-18 18:30 12.38 48200 175000 (2008) 37500 (2002) 73300 37500 39500 42100 42100 49300 104000 110000 132000 175000
2020-09-18 17:30 12.37 48100 175000 (2008) 37500 (2002) 73300 37500 39500 42100 42100 49300 104000 110000 132000 175000
2020-09-18 16:30 12.38 48200 175000 (2008) 37500 (2002) 73300 37500 39500 42100 42100 49300 104000 110000 132000 175000
2020-09-18 15:30 12.41 48300 175000 (2008) 37500 (2002) 73300 37500 39500 42100 42100 49300 104000 110000 132000 175000
2020-09-18 14:30 12.42 48400 175000 (2008) 37500 (2002) 73300 37500 39500 42100 42100 49300 104000 110000 132000 175000
2020-09-18 13:30 12.43 48400 175000 (2008) 37500 (2002) 73300 37500 39500 42100 42100 49300 104000 110000 132000 175000
2020-09-18 12:30 12.45 48500 175000 (2008) 37500 (2002) 73300 37500 39500 42100 42100 49300 104000 110000 132000 175000
2020-09-18 11:30 12.41 48300 175000 (2008) 37500 (2002) 73300 37500 39500 42100 42100 49300 104000 110000 132000 175000
2020-09-18 10:30 12.46 48600 175000 (2008) 37500 (2002) 73300 37500 39500 42100 42100 49300 104000 110000 132000 175000
2020-09-18 09:30 12.46 48600 175000 (2008) 37500 (2002) 73300 37500 39500 42100 42100 49300 104000 110000 132000 175000
2020-09-18 08:30 12.44 48500 175000 (2008) 37500 (2002) 73300 37500 39500 42100 42100 49300 104000 110000 132000 175000
2020-09-18 07:30 12.47 48700 175000 (2008) 37500 (2002) 73300 37500 39500 42100 42100 49300 104000 110000 132000 175000
2020-09-18 06:30 12.47 48700 175000 (2008) 37500 (2002) 73300 37500 39500 42100 42100 49300 104000 110000 132000 175000
2020-09-18 05:30 12.49 48800 175000 (2008) 37500 (2002) 73300 37500 39500 42100 42100 49300 104000 110000 132000 175000
2020-09-18 04:30 12.49 48800 175000 (2008) 37500 (2002) 73300 37500 39500 42100 42100 49300 104000 110000 132000 175000
2020-09-18 03:30 12.50 48800 175000 (2008) 37500 (2002) 73300 37500 39500 42100 42100 49300 104000 110000 132000 175000
2020-09-18 02:30 12.50 48800 175000 (2008) 37500 (2002) 73300 37500 39500 42100 42100 49300 104000 110000 132000 175000
2020-09-18 01:30 12.50 48800 175000 (2008) 37500 (2002) 73300 37500 39500 42100 42100 49300 104000 110000 132000 175000
2020-09-18 00:30 12.51 48900 175000 (2008) 37500 (2002) 73300 37500 39500 42100 42100 49300 104000 110000 132000 175000
2020-09-17 23:30 12.52 48900 205000 (2008) 37200 (2002) 76900 37200 37600 41800 42700 46500 122000 128000 136000 205000
2020-09-17 22:30 12.53 49000 205000 (2008) 37200 (2002) 76900 37200 37600 41800 42700 46500 122000 128000 136000 205000
2020-09-17 21:30 12.53 49000 205000 (2008) 37200 (2002) 76900 37200 37600 41800 42700 46500 122000 128000 136000 205000
2020-09-17 20:30 12.54 49000 205000 (2008) 37200 (2002) 76900 37200 37600 41800 42700 46500 122000 128000 136000 205000
2020-09-17 19:30 12.53 49000 205000 (2008) 37200 (2002) 76900 37200 37600 41800 42700 46500 122000 128000 136000 205000
2020-09-17 18:30 12.53 49000 205000 (2008) 37200 (2002) 76900 37200 37600 41800 42700 46500 122000 128000 136000 205000
2020-09-17 17:30 12.49 48800 205000 (2008) 37200 (2002) 76900 37200 37600 41800 42700 46500 122000 128000 136000 205000
2020-09-17 16:30 12.49 48800 205000 (2008) 37200 (2002) 76900 37200 37600 41800 42700 46500 122000 128000 136000 205000
2020-09-17 15:30 12.51 48900 205000 (2008) 37200 (2002) 76900 37200 37600 41800 42700 46500 122000 128000 136000 205000
2020-09-17 14:30 12.51 48900 205000 (2008) 37200 (2002) 76900 37200 37600 41800 42700 46500 122000 128000 136000 205000
2020-09-17 13:30 12.53 49000 205000 (2008) 37200 (2002) 76900 37200 37600 41800 42700 46500 122000 128000 136000 205000
2020-09-17 12:30 12.52 48900 205000 (2008) 37200 (2002) 76900 37200 37600 41800 42700 46500 122000 128000 136000 205000
2020-09-17 11:30 12.53 49000 205000 (2008) 37200 (2002) 76900 37200 37600 41800 42700 46500 122000 128000 136000 205000
2020-09-17 10:30 12.56 49200 205000 (2008) 37200 (2002) 76900 37200 37600 41800 42700 46500 122000 128000 136000 205000
2020-09-17 09:30 12.55 49100 205000 (2008) 37200 (2002) 76900 37200 37600 41800 42700 46500 122000 128000 136000 205000
2020-09-17 08:30 12.58 49300 205000 (2008) 37200 (2002) 76900 37200 37600 41800 42700 46500 122000 128000 136000 205000
2020-09-17 07:30 12.57 49200 205000 (2008) 37200 (2002) 76900 37200 37600 41800 42700 46500 122000 128000 136000 205000
2020-09-17 06:30 12.60 49400 205000 (2008) 37200 (2002) 76900 37200 37600 41800 42700 46500 122000 128000 136000 205000
2020-09-17 05:30 12.59 49300 205000 (2008) 37200 (2002) 76900 37200 37600 41800 42700 46500 122000 128000 136000 205000
2020-09-17 04:30 12.61 49400 205000 (2008) 37200 (2002) 76900 37200 37600 41800 42700 46500 122000 128000 136000 205000
2020-09-17 03:30 12.61 49400 205000 (2008) 37200 (2002) 76900 37200 37600 41800 42700 46500 122000 128000 136000 205000
2020-09-17 02:30 12.63 49500 205000 (2008) 37200 (2002) 76900 37200 37600 41800 42700 46500 122000 128000 136000 205000
2020-09-17 01:30 12.64 49600 205000 (2008) 37200 (2002) 76900 37200 37600 41800 42700 46500 122000 128000 136000 205000
2020-09-17 00:30 12.66 49700 205000 (2008) 37200 (2002) 76900 37200 37600 41800 42700 46500 122000 128000 136000 205000
2020-09-16 23:30 12.61 49400 221000 (2008) 35200 (2005) 81300 35200 36600 42000 42400 48700 123000 132000 165000 221000
2020-09-16 22:30 12.67 49800 221000 (2008) 35200 (2005) 81300 35200 36600 42000 42400 48700 123000 132000 165000 221000
2020-09-16 21:30 12.68 49800 221000 (2008) 35200 (2005) 81300 35200 36600 42000 42400 48700 123000 132000 165000 221000
2020-09-16 20:30 12.68 49800 221000 (2008) 35200 (2005) 81300 35200 36600 42000 42400 48700 123000 132000 165000 221000
2020-09-16 19:30 12.69 49900 221000 (2008) 35200 (2005) 81300 35200 36600 42000 42400 48700 123000 132000 165000 221000
2020-09-16 18:30 12.62 49500 221000 (2008) 35200 (2005) 81300 35200 36600 42000 42400 48700 123000 132000 165000 221000
2020-09-16 17:30 12.72 50000 221000 (2008) 35200 (2005) 81300 35200 36600 42000 42400 48700 123000 132000 165000 221000
2020-09-16 16:30 12.73 50100 221000 (2008) 35200 (2005) 81300 35200 36600 42000 42400 48700 123000 132000 165000 221000
2020-09-16 15:30 12.74 50200 221000 (2008) 35200 (2005) 81300 35200 36600 42000 42400 48700 123000 132000 165000 221000
2020-09-16 14:30 12.75 50200 221000 (2008) 35200 (2005) 81300 35200 36600 42000 42400 48700 123000 132000 165000 221000
2020-09-16 13:30 12.76 50300 221000 (2008) 35200 (2005) 81300 35200 36600 42000 42400 48700 123000 132000 165000 221000
2020-09-16 12:30 12.77 50300 221000 (2008) 35200 (2005) 81300 35200 36600 42000 42400 48700 123000 132000 165000 221000
2020-09-16 11:30 12.79 50400 221000 (2008) 35200 (2005) 81300 35200 36600 42000 42400 48700 123000 132000 165000 221000
2020-09-16 10:30 12.80 50500 221000 (2008) 35200 (2005) 81300 35200 36600 42000 42400 48700 123000 132000 165000 221000
2020-09-16 09:30 12.81 50500 221000 (2008) 35200 (2005) 81300 35200 36600 42000 42400 48700 123000 132000 165000 221000
2020-09-16 08:30 12.81 50500 221000 (2008) 35200 (2005) 81300 35200 36600 42000 42400 48700 123000 132000 165000 221000
2020-09-16 07:30 12.85 50800 221000 (2008) 35200 (2005) 81300 35200 36600 42000 42400 48700 123000 132000 165000 221000
2020-09-16 06:30 12.87 50900 221000 (2008) 35200 (2005) 81300 35200 36600 42000 42400 48700 123000 132000 165000 221000
2020-09-16 05:30 12.89 51000 221000 (2008) 35200 (2005) 81300 35200 36600 42000 42400 48700 123000 132000 165000 221000
2020-09-16 04:30 12.91 51100 221000 (2008) 35200 (2005) 81300 35200 36600 42000 42400 48700 123000 132000 165000 221000
2020-09-16 03:30 12.94 51300 221000 (2008) 35200 (2005) 81300 35200 36600 42000 42400 48700 123000 132000 165000 221000
2020-09-16 02:30 12.96 51400 221000 (2008) 35200 (2005) 81300 35200 36600 42000 42400 48700 123000 132000 165000 221000
2020-09-16 01:30 12.98 51500 221000 (2008) 35200 (2005) 81300 35200 36600 42000 42400 48700 123000 132000 165000 221000
2020-09-16 00:30 13.02 51700 221000 (2008) 35200 (2005) 81300 35200 36600 42000 42400 48700 123000 132000 165000 221000

A total of 169 rows are displayed for years 2001 through 2019.